Time;durP1;ratioP1;P1;durP2;ratioP2;P2;SDS_P1;SDS_P2;PMS_P1;PMS_P2;Temp;Humidity;BMP_temperature;BMP_pressure;BME280_temperature;BME280_humidity;BME280_pressure;Samples;Min_cycle;Max_cycle;Signal;HPM_P1;HPM_P2
2022/10/15 05:31:44;;;;;;;1.37;1.20;;;20.20;99.90;;;;;;5104822;27;20983;-67
2022/10/15 05:34:12;;;;;;;0.90;0.90;;;20.20;99.90;;;;;;5069778;28;20454;-67
2022/10/15 05:36:39;;;;;;;1.40;1.00;;;20.30;99.90;;;;;;5077945;28;20454;-67
2022/10/15 05:39:09;;;;;;;1.40;1.23;;;20.30;99.90;;;;;;5090180;28;20758;-67
2022/10/15 05:41:36;;;;;;;2.60;1.10;;;20.40;99.90;;;;;;5089644;28;20541;-66
2022/10/15 05:44:03;;;;;;;1.10;1.10;;;20.50;99.90;;;;;;5089659;28;20453;-67
2022/10/15 05:46:30;;;;;;;1.00;1.00;;;20.50;99.90;;;;;;5070845;28;20824;-67
2022/10/15 05:48:58;;;;;;;1.03;1.03;;;20.50;99.90;;;;;;5070457;28;20850;-68
2022/10/15 05:51:26;;;;;;;1.40;1.30;;;20.50;99.90;;;;;;5070415;28;20522;-67
2022/10/15 05:53:54;;;;;;;1.20;1.20;;;20.50;99.90;;;;;;5069444;28;20526;-67
2022/10/15 05:56:21;;;;;;;1.20;1.20;;;20.60;99.90;;;;;;5088767;28;20541;-67
2022/10/15 05:58:48;;;;;;;1.17;0.80;;;20.60;99.90;;;;;;5089862;28;20533;-68
2022/10/15 06:01:15;;;;;;;0.83;0.83;;;20.70;99.90;;;;;;5090655;28;20546;-68
2022/10/15 06:03:42;;;;;;;0.80;0.80;;;20.70;99.90;;;;;;5089849;28;20522;-68
2022/10/15 06:06:19;;;;;;;0.80;0.80;;;20.70;99.90;;;;;;5072849;28;20969;-67
2022/10/15 06:08:47;;;;;;;0.97;0.97;;;20.70;99.90;;;;;;5055030;28;20533;-67
2022/10/15 06:11:14;;;;;;;1.30;1.30;;;20.80;99.90;;;;;;5069244;28;20653;-68
2022/10/15 06:13:42;;;;;;;1.03;1.03;;;20.80;99.90;;;;;;5069797;28;20439;-68
2022/10/15 06:16:10;;;;;;;0.90;0.90;;;20.80;99.90;;;;;;5086477;28;21002;-67
2022/10/15 06:18:38;;;;;;;1.00;1.00;;;20.80;99.90;;;;;;5089511;28;20533;-68
2022/10/15 06:21:07;;;;;;;1.13;1.13;;;20.80;99.90;;;;;;5089521;28;20465;-67
2022/10/15 06:23:36;;;;;;;1.73;1.50;;;20.90;99.90;;;;;;5089312;28;20469;-65
2022/10/15 06:26:04;;;;;;;0.93;0.93;;;20.90;99.90;;;;;;5072758;28;20806;-65
2022/10/15 06:28:31;;;;;;;1.00;0.80;;;20.90;99.90;;;;;;5068930;28;20443;-65
2022/10/15 06:30:59;;;;;;;1.10;1.00;;;21.00;99.90;;;;;;5068422;28;21022;-65
2022/10/15 06:33:26;;;;;;;1.60;1.50;;;21.00;99.90;;;;;;5076020;28;20454;-65
2022/10/15 06:35:53;;;;;;;1.00;1.00;;;21.00;99.90;;;;;;5089068;28;20450;-66
2022/10/15 06:38:20;;;;;;;1.10;1.10;;;21.00;99.90;;;;;;5089288;28;20874;-69
2022/10/15 06:40:49;;;;;;;1.90;1.40;;;21.10;99.90;;;;;;5089617;28;20561;-70
2022/10/15 06:43:15;;;;;;;1.13;1.13;;;21.00;99.90;;;;;;5068826;28;20485;-70
2022/10/15 06:45:43;;;;;;;1.30;1.30;;;21.00;99.90;;;;;;5055810;28;20479;-68
2022/10/15 06:48:11;;;;;;;2.07;1.97;;;21.00;99.90;;;;;;5055338;28;20521;-68
2022/10/15 06:50:38;;;;;;;1.13;1.03;;;21.00;99.90;;;;;;5055597;28;20484;-68
2022/10/15 06:53:06;;;;;;;1.60;1.40;;;21.00;99.90;;;;;;5060084;28;20444;-68
2022/10/15 06:55:33;;;;;;;1.93;1.00;;;21.00;99.90;;;;;;5076022;28;20443;-68
2022/10/15 06:58:01;;;;;;;1.27;1.27;;;20.90;99.90;;;;;;5075518;28;20534;-68
2022/10/15 07:00:28;;;;;;;1.23;1.23;;;20.90;99.90;;;;;;5075269;28;20456;-68
2022/10/15 07:02:55;;;;;;;1.13;1.07;;;20.90;99.90;;;;;;5071603;28;20532;-67
2022/10/15 07:05:22;;;;;;;1.27;1.27;;;20.90;99.90;;;;;;5055223;28;20533;-68
2022/10/15 07:07:52;;;;;;;1.07;1.07;;;20.90;99.90;;;;;;5055406;28;20483;-69
2022/10/15 07:10:19;;;;;;;1.20;1.20;;;20.90;99.90;;;;;;5054556;28;20509;-66
2022/10/15 07:12:46;;;;;;;2.13;1.57;;;20.90;99.90;;;;;;5055742;28;20444;-68
2022/10/15 07:15:14;;;;;;;1.93;1.83;;;20.90;99.90;;;;;;5054737;28;20988;-69
2022/10/15 07:17:46;;;;;;;1.23;1.23;;;20.90;99.90;;;;;;5054752;28;20445;-68
2022/10/15 07:20:13;;;;;;;1.53;1.30;;;20.90;99.90;;;;;;5054809;28;20952;-68
2022/10/15 07:22:40;;;;;;;1.43;1.33;;;20.90;99.90;;;;;;5055100;28;20458;-67
2022/10/15 07:25:09;;;;;;;1.10;1.03;;;20.90;99.90;;;;;;5074551;28;20861;-69
2022/10/15 07:27:36;;;;;;;1.10;1.10;;;20.90;99.90;;;;;;5074726;28;20443;-66
2022/10/15 07:30:04;;;;;;;1.43;1.40;;;20.90;99.90;;;;;;5074178;28;20536;-69
2022/10/15 07:32:33;;;;;;;1.50;1.47;;;20.90;99.90;;;;;;5061152;28;20444;-67
2022/10/15 07:35:00;;;;;;;1.40;1.30;;;20.80;99.90;;;;;;5054376;28;20529;-71
2022/10/15 07:37:27;;;;;;;1.07;1.07;;;20.80;99.90;;;;;;5054640;28;20452;-68
2022/10/15 07:39:54;;;;;;;1.30;1.30;;;20.80;99.90;;;;;;5054445;28;20460;-67
2022/10/15 07:42:21;;;;;;;1.27;1.23;;;20.80;99.90;;;;;;5065383;28;20451;-66
2022/10/15 07:44:47;;;;;;;1.30;1.17;;;20.80;99.90;;;;;;5074086;28;20868;-67
2022/10/15 07:47:14;;;;;;;1.10;1.10;;;20.80;99.90;;;;;;5074208;28;20530;-67
2022/10/15 07:49:43;;;;;;;1.30;1.30;;;20.90;99.90;;;;;;5074366;28;20526;-68
2022/10/15 07:52:09;;;;;;;0.90;0.90;;;20.90;99.90;;;;;;5064659;28;20490;-67
2022/10/15 07:54:36;;;;;;;1.50;1.40;;;20.80;99.90;;;;;;5053422;28;20452;-68
2022/10/15 07:57:05;;;;;;;1.37;1.37;;;20.80;99.90;;;;;;5053975;28;20485;-66
2022/10/15 07:59:32;;;;;;;1.00;0.97;;;20.80;99.90;;;;;;5054855;28;20482;-66
2022/10/15 08:01:59;;;;;;;1.07;1.07;;;20.80;99.90;;;;;;5073722;28;20526;-65
2022/10/15 08:04:26;;;;;;;0.90;0.90;;;20.80;99.90;;;;;;5073534;28;20478;-65
2022/10/15 08:06:54;;;;;;;1.10;1.00;;;20.90;99.90;;;;;;5073605;28;20439;-64
2022/10/15 08:09:21;;;;;;;1.60;1.20;;;20.90;99.90;;;;;;5072994;28;20887;-65
2022/10/15 08:11:48;;;;;;;1.20;1.20;;;20.90;99.90;;;;;;5072647;28;20483;-66
2022/10/15 08:14:15;;;;;;;1.30;1.13;;;20.90;99.90;;;;;;5073408;28;20471;-65
2022/10/15 08:16:41;;;;;;;1.50;1.50;;;20.90;99.90;;;;;;5073395;28;20863;-66
2022/10/15 08:19:08;;;;;;;2.00;1.17;;;20.90;99.90;;;;;;5073459;28;20534;-65
2022/10/15 08:21:35;;;;;;;1.60;1.50;;;20.90;99.90;;;;;;5054936;28;20555;-66
2022/10/15 08:24:04;;;;;;;0.97;0.97;;;20.90;99.90;;;;;;5053019;28;20531;-65
2022/10/15 08:26:31;;;;;;;1.00;1.00;;;20.90;99.90;;;;;;5053144;28;20473;-64
2022/10/15 08:28:58;;;;;;;0.90;0.90;;;20.90;99.90;;;;;;5052773;28;20627;-66
2022/10/15 08:31:24;;;;;;;1.37;1.37;;;20.90;99.90;;;;;;5062734;28;20536;-64
2022/10/15 08:33:52;;;;;;;1.20;1.20;;;20.90;99.90;;;;;;5072812;28;21000;-65
2022/10/15 08:36:19;;;;;;;1.20;1.20;;;20.90;99.90;;;;;;5073390;28;20531;-65
2022/10/15 08:38:46;;;;;;;2.63;1.70;;;20.90;99.90;;;;;;5073249;28;20866;-68
2022/10/15 08:41:22;;;;;;;2.87;1.40;;;20.90;99.90;;;;;;5058706;28;20467;-68
2022/10/15 08:43:49;;;;;;;1.90;1.80;;;20.90;99.90;;;;;;5053387;28;20530;-68
2022/10/15 08:46:20;;;;;;;1.20;1.20;;;20.90;99.90;;;;;;5053594;28;20476;-68
2022/10/15 08:48:51;;;;;;;1.17;1.17;;;20.90;99.90;;;;;;5053560;28;20451;-68
2022/10/15 08:51:20;;;;;;;1.30;1.30;;;20.90;99.90;;;;;;5068470;28;20476;-68
2022/10/15 08:53:50;;;;;;;2.60;1.50;;;20.90;99.90;;;;;;5072757;28;20534;-68
2022/10/15 08:56:22;;;;;;;1.50;1.40;;;20.90;99.90;;;;;;5073477;28;20527;-68
2022/10/15 08:58:57;;;;;;;1.20;1.20;;;20.90;99.90;;;;;;5074585;28;20522;-68
2022/10/15 09:01:30;;;;;;;1.20;1.20;;;20.80;99.90;;;;;;5033804;28;21001;-65
2022/10/15 09:04:07;;;;;;;1.30;1.30;;;20.80;99.90;;;;;;5032281;28;20540;-65
2022/10/15 09:06:36;;;;;;;1.50;1.40;;;20.80;99.90;;;;;;5032550;28;21054;-65
2022/10/15 09:09:10;;;;;;;3.87;2.47;;;20.80;99.90;;;;;;5033930;28;20792;-66
2022/10/15 09:12:00;;;;;;;2.03;1.50;;;20.80;99.90;;;;;;5072497;28;20526;-63
2022/10/15 09:14:37;;;;;;;1.47;1.37;;;20.80;99.90;;;;;;5072143;28;20477;-66
2022/10/15 09:17:16;;;;;;;3.57;1.50;;;20.80;99.90;;;;;;5072380;28;20439;-65
2022/10/15 09:19:45;;;;;;;1.60;1.50;;;20.80;99.90;;;;;;5066656;28;20518;-65
2022/10/15 09:22:17;;;;;;;1.90;1.67;;;20.80;99.90;;;;;;5052152;28;20480;-64
2022/10/15 09:24:43;;;;;;;4.47;3.03;;;20.90;99.90;;;;;;5052670;28;20491;-65
2022/10/15 09:27:21;;;;;;;1.30;1.30;;;20.90;99.90;;;;;;5052878;28;20976;-63
2022/10/15 09:29:53;;;;;;;1.50;1.40;;;20.90;99.90;;;;;;5052885;28;20454;-65
2022/10/15 09:32:26;;;;;;;1.40;1.30;;;20.90;99.90;;;;;;5052848;28;20484;-66
2022/10/15 09:34:59;;;;;;;1.20;1.10;;;20.90;99.90;;;;;;5052628;28;20455;-67
2022/10/15 09:37:30;;;;;;;1.30;1.20;;;20.90;99.90;;;;;;5052682;28;20922;-67
2022/10/15 09:40:27;;;;;;;1.80;1.50;;;21.00;99.90;;;;;;5072422;28;20489;-68
2022/10/15 09:42:58;;;;;;;1.20;1.20;;;21.00;99.90;;;;;;5073035;28;20446;-68
2022/10/15 09:45:25;;;;;;;1.20;1.20;;;21.00;99.90;;;;;;5073284;28;20444;-68
2022/10/15 09:47:56;;;;;;;0.90;0.90;;;21.00;99.90;;;;;;5070255;28;20452;-69
2022/10/15 09:50:24;;;;;;;1.30;1.30;;;21.00;99.90;;;;;;5052850;28;21076;-69
2022/10/15 09:53:06;;;;;;;1.23;1.17;;;21.00;99.90;;;;;;5052215;28;20860;-68
2022/10/15 09:55:42;;;;;;;1.60;1.50;;;21.00;99.90;;;;;;5051713;28;20451;-69
2022/10/15 09:58:15;;;;;;;2.00;1.00;;;21.00;99.90;;;;;;5053789;28;20530;-68
2022/10/15 10:00:58;;;;;;;1.70;1.20;;;21.00;99.90;;;;;;5053177;28;20550;-68
2022/10/15 10:03:26;;;;;;;3.60;1.20;;;21.00;99.90;;;;;;5052343;28;20448;-67
2022/10/15 10:06:01;;;;;;;4.80;2.10;;;21.00;99.90;;;;;;5052556;28;21021;-68
2022/10/15 10:08:31;;;;;;;1.37;1.37;;;21.00;99.90;;;;;;5058280;28;20816;-68
2022/10/15 10:11:00;;;;;;;1.60;1.50;;;21.00;99.90;;;;;;5071843;28;20455;-69
2022/10/15 10:13:32;;;;;;;1.97;1.50;;;21.00;99.90;;;;;;5071902;28;20440;-67
2022/10/15 10:16:04;;;;;;;2.67;2.43;;;21.00;99.90;;;;;;5072043;28;20538;-67
2022/10/15 10:18:32;;;;;;;1.47;1.40;;;21.00;99.90;;;;;;5069478;28;20452;-68
2022/10/15 10:21:00;;;;;;;1.00;1.00;;;21.00;99.90;;;;;;5056029;28;20470;-67
2022/10/15 10:23:33;;;;;;;2.43;1.60;;;21.00;99.90;;;;;;5055668;28;20498;-68
2022/10/15 10:26:00;;;;;;;1.10;1.00;;;21.00;99.90;;;;;;5056154;28;20617;-65
2022/10/15 10:28:33;;;;;;;1.60;1.43;;;21.00;99.90;;;;;;5060985;28;20878;-67
2022/10/15 10:31:04;;;;;;;1.63;1.10;;;21.10;99.90;;;;;;5075699;28;20506;-67
2022/10/15 10:33:34;;;;;;;3.63;1.70;;;21.10;99.90;;;;;;5075916;28;20518;-67
2022/10/15 10:36:01;;;;;;;2.10;1.30;;;21.00;99.90;;;;;;5075687;28;20447;-66
2022/10/15 10:38:31;;;;;;;1.10;1.10;;;21.10;99.90;;;;;;5075663;28;20443;-67
2022/10/15 10:41:04;;;;;;;2.33;2.13;;;21.00;99.90;;;;;;5075614;28;20769;-68
2022/10/15 10:43:34;;;;;;;2.10;1.57;;;21.00;99.90;;;;;;5075594;28;20471;-67
2022/10/15 10:46:04;;;;;;;1.23;0.93;;;21.10;99.90;;;;;;5075763;28;20543;-69
2022/10/15 10:48:39;;;;;;;1.27;1.17;;;21.10;99.90;;;;;;5075514;28;20454;-65
2022/10/15 10:51:10;;;;;;;0.80;0.80;;;21.10;99.90;;;;;;5075768;28;20470;-69
2022/10/15 10:53:48;;;;;;;1.30;1.30;;;21.10;99.90;;;;;;5063441;28;20517;-69
2022/10/15 10:56:17;;;;;;;1.63;1.57;;;21.10;99.90;;;;;;5055379;28;20804;-68
2022/10/15 10:58:46;;;;;;;0.87;0.87;;;21.10;99.90;;;;;;5055579;28;20448;-69
2022/10/15 11:01:13;;;;;;;1.30;1.30;;;21.10;99.90;;;;;;5069510;28;20470;-69
2022/10/15 11:03:42;;;;;;;1.00;1.00;;;21.10;99.90;;;;;;5075253;28;20522;-68
2022/10/15 11:06:57;;;;;;;1.23;1.23;;;21.10;99.90;;;;;;5075305;28;20435;-68
2022/10/15 11:09:38;;;;;;;1.07;1.07;;;21.10;99.90;;;;;;5038952;28;20440;-66
2022/10/15 11:12:17;;;;;;;1.20;1.10;;;21.10;99.90;;;;;;5074934;28;20483;-65
2022/10/15 11:14:53;;;;;;;1.00;1.00;;;21.10;99.90;;;;;;5074937;28;20949;-68
2022/10/15 11:17:28;;;;;;;1.13;1.13;;;21.10;99.90;;;;;;5074871;28;20447;-68
2022/10/15 11:20:02;;;;;;;1.10;1.10;;;21.10;99.90;;;;;;5057950;28;20840;-69
2022/10/15 11:22:44;;;;;;;1.53;1.10;;;21.10;99.90;;;;;;5054702;28;20448;-69
2022/10/15 11:25:22;;;;;;;1.07;1.07;;;21.10;99.90;;;;;;5055463;28;20505;-69
2022/10/15 11:28:03;;;;;;;1.30;1.30;;;21.10;99.90;;;;;;5054843;28;20531;-68
2022/10/15 11:30:44;;;;;;;0.80;0.80;;;21.10;99.90;;;;;;5060683;28;20552;-69
2022/10/15 11:33:27;;;;;;;1.13;1.13;;;21.10;99.90;;;;;;5075108;28;20479;-70
2022/10/15 11:36:09;;;;;;;0.90;0.90;;;21.10;99.90;;;;;;5074842;28;21012;-67
2022/10/15 11:38:43;;;;;;;1.00;1.00;;;21.10;99.90;;;;;;5069910;28;20535;-66
2022/10/15 11:41:31;;;;;;;0.87;0.87;;;21.10;99.90;;;;;;5054829;28;20551;-68
2022/10/15 11:44:12;;;;;;;1.00;1.00;;;21.20;99.90;;;;;;5054768;28;20527;-68
2022/10/15 11:46:46;;;;;;;0.87;0.87;;;21.20;99.90;;;;;;5071944;28;20447;-66
2022/10/15 11:49:26;;;;;;;1.00;0.80;;;21.20;99.90;;;;;;5074564;28;20483;-66
2022/10/15 11:52:13;;;;;;;1.00;0.90;;;21.20;99.90;;;;;;5074496;28;20490;-67
2022/10/15 11:54:45;;;;;;;1.67;1.20;;;21.20;99.90;;;;;;5073762;28;20514;-67
2022/10/15 11:57:15;;;;;;;0.90;0.90;;;21.20;99.90;;;;;;5055356;28;20444;-67
2022/10/15 11:59:48;;;;;;;1.50;1.50;;;21.20;99.90;;;;;;5054128;28;20480;-66
2022/10/15 12:02:22;;;;;;;0.80;0.80;;;21.30;99.90;;;;;;5054150;28;20444;-68
2022/10/15 12:04:51;;;;;;;1.57;0.97;;;21.30;99.90;;;;;;5054971;28;20464;-69
2022/10/15 12:07:22;;;;;;;1.10;1.10;;;21.30;99.90;;;;;;5053824;28;20529;-65
2022/10/15 12:09:55;;;;;;;0.90;0.90;;;21.30;99.90;;;;;;5053998;28;20445;-68
2022/10/15 12:12:33;;;;;;;1.23;0.70;;;21.30;99.90;;;;;;5053827;28;20483;-70
2022/10/15 12:15:14;;;;;;;1.13;0.90;;;21.20;99.90;;;;;;5070174;28;20443;-69
2022/10/15 12:17:50;;;;;;;1.03;1.03;;;21.30;99.90;;;;;;5074523;28;20435;-72
2022/10/15 12:20:20;;;;;;;1.30;1.30;;;21.30;99.90;;;;;;5074290;28;21142;-71
2022/10/15 12:22:58;;;;;;;0.80;0.80;;;21.30;99.90;;;;;;5073705;28;20448;-72
2022/10/15 12:25:45;;;;;;;1.00;0.90;;;21.30;99.90;;;;;;5054102;28;20487;-69
2022/10/15 12:28:18;;;;;;;1.03;0.87;;;21.30;99.90;;;;;;5054176;28;20444;-70
2022/10/15 12:31:01;;;;;;;2.07;0.90;;;21.20;99.90;;;;;;5053355;28;20819;-71
2022/10/15 12:33:37;;;;;;;3.03;1.80;;;21.20;99.90;;;;;;5053376;28;20583;-70
2022/10/15 12:36:08;;;;;;;5.00;2.83;;;21.20;99.90;;;;;;5059056;28;20535;-70
2022/10/15 12:38:38;;;;;;;5.53;2.30;;;21.20;99.90;;;;;;5073760;28;20547;-71
2022/10/15 12:41:08;;;;;;;5.37;3.20;;;21.20;99.90;;;;;;5072564;28;20470;-65
2022/10/15 12:43:39;;;;;;;9.73;4.00;;;21.30;99.90;;;;;;5072779;28;20531;-67
2022/10/15 12:46:09;;;;;;;10.03;4.83;;;21.30;99.90;;;;;;5072708;28;20518;-69
2022/10/15 12:48:40;;;;;;;6.73;4.13;;;21.30;99.90;;;;;;5061731;28;20451;-69
2022/10/15 12:51:34;;;;;;;7.10;2.97;;;21.30;99.90;;;;;;5052321;28;20547;-67
2022/10/15 12:54:01;;;;;;;12.60;4.87;;;21.30;99.90;;;;;;5052151;28;20440;-68
2022/10/15 12:56:39;;;;;;;5.63;2.90;;;21.30;99.90;;;;;;5053472;28;20441;-67
2022/10/15 12:59:30;;;;;;;6.73;2.70;;;21.30;99.90;;;;;;5052620;28;20860;-67
2022/10/15 13:01:57;;;;;;;3.30;2.30;;;21.30;99.90;;;;;;5052850;28;20535;-67
2022/10/15 13:04:38;;;;;;;7.73;3.17;;;21.30;99.90;;;;;;5052530;28;20807;-69
2022/10/15 13:07:05;;;;;;;7.23;3.00;;;21.30;99.90;;;;;;5066432;28;20497;-69
2022/10/15 13:09:32;;;;;;;4.67;2.40;;;21.30;99.90;;;;;;5072501;28;20526;-69
2022/10/15 13:12:00;;;;;;;6.77;3.30;;;21.30;99.90;;;;;;5072440;28;20827;-70
2022/10/15 13:14:38;;;;;;;7.53;2.70;;;21.30;99.90;;;;;;5067015;28;20440;-70
2022/10/15 13:17:14;;;;;;;5.27;2.57;;;21.40;99.90;;;;;;5052885;28;20443;-72
2022/10/15 13:19:48;;;;;;;10.83;5.30;;;21.40;99.90;;;;;;5053495;28;20448;-72
2022/10/15 13:22:22;;;;;;;4.57;3.60;;;21.40;99.90;;;;;;5053381;28;20460;-68
2022/10/15 13:24:49;;;;;;;8.03;2.80;;;21.40;99.90;;;;;;5060269;28;20527;-68
2022/10/15 13:27:22;;;;;;;3.00;2.80;;;21.40;99.90;;;;;;5071892;28;21000;-68
2022/10/15 13:29:57;;;;;;;4.90;1.83;;;21.40;99.90;;;;;;5072151;28;20491;-67
2022/10/15 13:32:26;;;;;;;2.10;1.60;;;21.40;99.90;;;;;;5072715;28;20478;-68
2022/10/15 13:34:56;;;;;;;4.87;2.00;;;21.40;99.90;;;;;;5066331;28;20467;-67
2022/10/15 13:37:29;;;;;;;3.50;2.50;;;21.40;99.90;;;;;;5051571;28;20535;-69
2022/10/15 13:39:56;;;;;;;2.33;1.40;;;21.40;99.90;;;;;;5052279;28;20472;-68
2022/10/15 13:42:25;;;;;;;3.07;1.40;;;21.40;99.90;;;;;;5053359;28;20846;-72
2022/10/15 13:45:01;;;;;;;4.20;1.90;;;21.40;99.90;;;;;;5063501;28;20542;-71
2022/10/15 13:47:31;;;;;;;7.40;3.50;;;21.40;99.90;;;;;;5065960;28;20938;-72
2022/10/15 13:50:13;;;;;;;6.47;3.53;;;21.40;99.90;;;;;;5068650;28;20490;-71
2022/10/15 13:52:42;;;;;;;4.70;2.57;;;21.40;99.90;;;;;;5071852;28;20476;-72
2022/10/15 13:55:21;;;;;;;4.70;2.63;;;21.40;99.90;;;;;;5078016;28;20449;-73
2022/10/15 13:57:49;;;;;;;6.80;2.47;;;21.40;99.90;;;;;;5087424;28;20455;-71
2022/10/15 14:00:26;;;;;;;4.80;2.70;;;21.40;99.90;;;;;;5093574;28;20485;-72
2022/10/15 14:03:16;;;;;;;2.00;1.60;;;21.40;99.90;;;;;;5090206;28;20474;-71
2022/10/15 14:05:46;;;;;;;4.73;2.47;;;21.40;99.90;;;;;;5076287;28;20471;-70
2022/10/15 14:08:25;;;;;;;2.83;1.93;;;21.40;99.90;;;;;;5074488;28;20538;-71
2022/10/15 14:10:54;;;;;;;2.50;1.93;;;21.40;99.90;;;;;;5076752;28;20494;-70
2022/10/15 14:13:21;;;;;;;3.40;1.87;;;21.40;99.90;;;;;;5075936;28;20565;-68
2022/10/15 14:15:53;;;;;;;4.60;3.37;;;21.40;99.90;;;;;;5066989;28;20459;-72
2022/10/15 14:18:35;;;;;;;4.37;2.27;;;21.40;99.90;;;;;;5064341;28;20820;-70
2022/10/15 14:21:09;;;;;;;1.97;1.70;;;21.40;99.90;;;;;;5075852;28;20586;-72
2022/10/15 14:23:36;;;;;;;3.47;3.00;;;21.40;99.90;;;;;;5076270;28;20543;-71
2022/10/15 14:26:04;;;;;;;9.97;2.40;;;21.40;99.90;;;;;;5064400;28;20463;-70
2022/10/15 14:28:33;;;;;;;5.97;2.37;;;21.40;99.90;;;;;;5055620;28;20498;-68
2022/10/15 14:31:01;;;;;;;4.53;1.90;;;21.50;99.90;;;;;;5056419;28;20472;-71
2022/10/15 14:33:31;;;;;;;1.80;1.70;;;21.50;99.90;;;;;;5055952;28;20491;-70
2022/10/15 14:36:08;;;;;;;3.70;2.00;;;21.50;99.90;;;;;;5055950;28;20436;-68
2022/10/15 14:38:35;;;;;;;2.20;2.00;;;21.50;99.90;;;;;;5068937;28;21009;-69
2022/10/15 14:41:08;;;;;;;5.57;3.50;;;21.50;99.90;;;;;;5075627;28;20534;-70
2022/10/15 14:43:36;;;;;;;7.60;3.03;;;21.50;99.90;;;;;;5075964;28;20504;-67
2022/10/15 14:46:05;;;;;;;5.47;3.87;;;21.50;99.90;;;;;;5076119;28;20451;-68
2022/10/15 14:48:34;;;;;;;5.47;4.67;;;21.50;99.90;;;;;;5075670;28;20458;-68
2022/10/15 14:51:05;;;;;;;14.57;7.80;;;21.50;99.90;;;;;;5056430;28;20474;-68
2022/10/15 14:53:36;;;;;;;12.23;6.73;;;21.50;99.90;;;;;;5055605;28;20483;-72
2022/10/15 14:56:07;;;;;;;11.10;7.07;;;21.50;99.90;;;;;;5055186;28;20448;-68
2022/10/15 14:58:35;;;;;;;9.27;6.20;;;21.50;99.90;;;;;;5055344;28;20444;-68
2022/10/15 15:01:04;;;;;;;11.63;7.77;;;21.50;99.90;;;;;;5057708;28;20555;-68
2022/10/15 15:03:39;;;;;;;13.60;6.23;;;21.50;99.90;;;;;;5074490;28;20443;-69
2022/10/15 15:06:06;;;;;;;10.97;6.30;;;21.50;99.90;;;;;;5075561;28;20535;-67
2022/10/15 15:08:35;;;;;;;9.23;6.40;;;21.50;99.90;;;;;;5075386;28;20535;-68
2022/10/15 15:11:03;;;;;;;14.40;8.70;;;21.50;99.90;;;;;;5075296;28;20467;-68
2022/10/15 15:13:32;;;;;;;14.23;7.33;;;21.50;99.90;;;;;;5070053;28;20476;-68
2022/10/15 15:15:59;;;;;;;11.23;7.77;;;21.50;99.90;;;;;;5055009;28;20543;-70
2022/10/15 15:18:27;;;;;;;13.07;7.67;;;21.50;99.90;;;;;;5054969;28;20942;-68
2022/10/15 15:20:55;;;;;;;12.90;7.80;;;21.50;99.90;;;;;;5055195;28;20468;-67
2022/10/15 15:23:25;;;;;;;14.90;9.70;;;21.50;99.90;;;;;;5055089;28;20482;-67
2022/10/15 15:25:54;;;;;;;14.87;8.43;;;21.50;99.90;;;;;;5060603;28;20454;-66
2022/10/15 15:28:24;;;;;;;16.10;8.27;;;21.50;99.90;;;;;;5075209;28;20526;-69
2022/10/15 15:30:55;;;;;;;11.43;8.40;;;21.60;99.90;;;;;;5074944;28;20467;-69
2022/10/15 15:33:22;;;;;;;11.70;6.67;;;21.60;99.90;;;;;;5075104;28;21103;-69
2022/10/15 15:35:50;;;;;;;10.83;7.70;;;21.60;99.90;;;;;;5075275;28;20458;-69
2022/10/15 15:38:18;;;;;;;9.43;6.60;;;21.60;99.90;;;;;;5074636;28;20447;-70
2022/10/15 15:40:45;;;;;;;11.27;7.80;;;21.70;99.90;;;;;;5074674;28;20463;-69
2022/10/15 15:43:15;;;;;;;16.23;9.43;;;21.70;99.90;;;;;;5074716;28;20534;-70
2022/10/15 15:45:42;;;;;;;12.37;7.80;;;21.70;99.90;;;;;;5075065;28;20941;-69
2022/10/15 15:48:09;;;;;;;12.50;7.33;;;21.70;99.90;;;;;;5074923;28;20471;-70
2022/10/15 15:50:36;;;;;;;10.73;6.77;;;21.70;99.90;;;;;;5075324;28;20547;-70
2022/10/15 15:53:04;;;;;;;13.43;7.87;;;21.70;99.90;;;;;;5075048;28;20482;-70
2022/10/15 15:55:31;;;;;;;9.03;7.17;;;21.70;99.90;;;;;;5075904;28;20486;-70
2022/10/15 15:57:57;;;;;;;11.57;7.13;;;21.70;99.90;;;;;;5076280;28;20530;-69
2022/10/15 16:00:26;;;;;;;11.17;7.33;;;21.70;99.90;;;;;;5074964;28;20543;-69
2022/10/15 16:02:53;;;;;;;9.10;6.80;;;21.70;99.90;;;;;;5074833;28;20482;-70
2022/10/15 16:05:20;;;;;;;11.07;6.70;;;21.70;99.90;;;;;;5075391;28;20475;-67
2022/10/15 16:07:46;;;;;;;9.57;7.00;;;21.70;99.90;;;;;;5075019;28;20874;-70
2022/10/15 16:10:13;;;;;;;11.43;7.27;;;21.70;99.90;;;;;;5075144;28;20546;-69
2022/10/15 16:12:41;;;;;;;9.70;7.70;;;21.70;99.90;;;;;;5074626;28;20471;-70
2022/10/15 16:15:09;;;;;;;8.30;6.10;;;21.70;99.90;;;;;;5073708;28;20454;-70
2022/10/15 16:17:38;;;;;;;11.00;6.40;;;21.80;99.90;;;;;;5075227;28;20447;-69
2022/10/15 16:20:06;;;;;;;12.37;6.53;;;21.80;99.90;;;;;;5074448;28;20542;-70
2022/10/15 16:22:33;;;;;;;14.10;8.47;;;21.80;99.90;;;;;;5074622;28;20459;-72
2022/10/15 16:24:59;;;;;;;8.83;6.77;;;21.80;99.90;;;;;;5074848;28;20485;-69
2022/10/15 16:27:26;;;;;;;9.90;6.13;;;21.80;99.90;;;;;;5074557;28;20618;-69
2022/10/15 16:29:53;;;;;;;9.70;6.20;;;21.80;99.90;;;;;;5074425;28;20537;-68
2022/10/15 16:32:20;;;;;;;9.90;6.37;;;21.80;99.90;;;;;;5074313;28;20483;-70
2022/10/15 16:34:48;;;;;;;8.43;5.77;;;21.80;99.90;;;;;;5074374;28;20485;-70
2022/10/15 16:37:15;;;;;;;6.53;5.07;;;21.80;99.90;;;;;;5074501;28;20995;-70
2022/10/15 16:39:42;;;;;;;14.73;7.53;;;21.80;99.90;;;;;;5074004;28;20447;-70
2022/10/15 16:42:09;;;;;;;10.60;7.47;;;21.80;99.90;;;;;;5073901;28;20520;-70
2022/10/15 16:44:36;;;;;;;8.60;6.00;;;21.80;99.90;;;;;;5073884;28;20527;-70
2022/10/15 16:47:02;;;;;;;7.87;4.97;;;21.80;99.90;;;;;;5073912;28;20454;-69
2022/10/15 16:49:29;;;;;;;7.30;5.90;;;21.80;99.90;;;;;;5073744;28;20530;-70
2022/10/15 16:51:57;;;;;;;9.13;5.57;;;21.80;99.90;;;;;;5074287;28;20911;-70
2022/10/15 16:54:24;;;;;;;7.57;4.53;;;21.80;99.90;;;;;;5073879;28;20586;-69
2022/10/15 16:56:52;;;;;;;7.00;4.80;;;21.80;99.90;;;;;;5074263;28;20439;-69
2022/10/15 16:59:19;;;;;;;5.77;4.60;;;21.80;99.90;;;;;;5074219;28;20489;-69
2022/10/15 17:01:46;;;;;;;8.07;5.17;;;21.80;99.90;;;;;;5073600;28;20467;-68
2022/10/15 17:04:13;;;;;;;5.53;4.97;;;21.80;99.90;;;;;;5073097;28;20458;-70
2022/10/15 17:06:39;;;;;;;8.53;4.73;;;21.80;99.90;;;;;;5073127;28;20975;-69
2022/10/15 17:09:08;;;;;;;9.37;6.13;;;21.80;99.90;;;;;;5072759;28;20447;-69
2022/10/15 17:11:37;;;;;;;6.23;4.73;;;21.80;99.90;;;;;;5073441;28;20542;-70
2022/10/15 17:14:05;;;;;;;9.80;6.10;;;21.80;99.90;;;;;;5072855;28;20580;-70
2022/10/15 17:16:33;;;;;;;7.07;4.83;;;21.80;99.90;;;;;;5073483;28;20539;-70
2022/10/15 17:19:02;;;;;;;6.07;5.00;;;21.80;99.90;;;;;;5073076;28;20469;-68
2022/10/15 17:21:30;;;;;;;7.80;5.20;;;21.80;99.90;;;;;;5072490;28;20464;-68
2022/10/15 17:24:00;;;;;;;8.37;5.60;;;21.70;99.90;;;;;;5067613;28;20455;-69
2022/10/15 17:26:32;;;;;;;6.27;3.87;;;21.70;99.90;;;;;;5052345;28;20472;-69
2022/10/15 17:28:59;;;;;;;6.57;4.10;;;21.70;99.90;;;;;;5052862;28;20456;-69
2022/10/15 17:31:27;;;;;;;5.60;3.77;;;21.80;99.90;;;;;;5052930;28;20512;-68
2022/10/15 17:33:56;;;;;;;8.97;5.00;;;21.70;99.90;;;;;;5052282;28;20479;-69
2022/10/15 17:36:25;;;;;;;6.87;5.93;;;21.80;99.90;;;;;;5068468;28;20447;-69
2022/10/15 17:38:52;;;;;;;9.77;6.57;;;21.80;99.90;;;;;;5074645;28;20447;-70
2022/10/15 17:41:21;;;;;;;12.03;7.03;;;21.80;99.90;;;;;;5072819;28;20473;-68
2022/10/15 17:43:50;;;;;;;12.77;7.37;;;21.70;99.90;;;;;;5072663;28;20523;-69
2022/10/15 17:46:19;;;;;;;11.43;8.00;;;21.70;99.90;;;;;;5060514;28;20444;-70
2022/10/15 17:48:47;;;;;;;11.33;6.00;;;21.70;99.90;;;;;;5053282;28;20440;-69
2022/10/15 17:51:16;;;;;;;11.53;8.00;;;21.70;99.90;;;;;;5045480;28;20496;-71
2022/10/15 17:53:44;;;;;;;11.07;7.50;;;21.70;99.90;;;;;;5052395;28;20480;-70
2022/10/15 17:56:13;;;;;;;12.83;9.40;;;21.70;99.90;;;;;;5065414;28;20456;-71
2022/10/15 17:58:40;;;;;;;10.23;7.07;;;21.70;99.90;;;;;;5074062;28;20443;-72
2022/10/15 18:01:12;;;;;;;10.83;6.10;;;21.70;99.90;;;;;;5074275;28;20981;-71
2022/10/15 18:03:39;;;;;;;10.90;5.90;;;21.70;99.90;;;;;;5073513;28;20530;-72
2022/10/15 18:06:07;;;;;;;9.37;6.17;;;21.70;99.90;;;;;;5071122;28;20575;-72
2022/10/15 18:08:34;;;;;;;11.33;6.50;;;21.70;99.90;;;;;;5067068;28;20514;-68
2022/10/15 18:11:02;;;;;;;10.93;5.57;;;21.70;99.90;;;;;;5052593;28;20555;-65
2022/10/15 18:13:31;;;;;;;12.13;6.67;;;21.70;99.90;;;;;;5052776;28;20539;-70
2022/10/15 18:15:59;;;;;;;11.00;5.33;;;21.70;99.90;;;;;;5063223;28;20879;-70
2022/10/15 18:18:28;;;;;;;9.10;5.30;;;21.70;99.90;;;;;;5072905;28;20497;-70
2022/10/15 18:20:55;;;;;;;11.67;6.60;;;21.70;99.90;;;;;;5073252;28;20524;-69
2022/10/15 18:23:23;;;;;;;8.37;5.67;;;21.70;99.90;;;;;;5072203;28;20454;-73
2022/10/15 18:26:01;;;;;;;9.93;6.60;;;21.70;99.90;;;;;;5063570;28;20938;-70
2022/10/15 18:28:28;;;;;;;8.00;5.50;;;21.80;99.90;;;;;;5052766;28;20515;-71
2022/10/15 18:30:55;;;;;;;8.57;6.00;;;21.80;99.90;;;;;;5052720;28;20472;-71
2022/10/15 18:33:22;;;;;;;11.70;6.70;;;21.80;99.90;;;;;;5054211;28;20853;-68